sensor_id;sensor_type;location;lat;lon;timestamp;P1;durP1;ratioP1;P2;durP2;ratioP2
76208;SDS011;64990;51.698;-0.292;2023-02-28T00:02:12;14.57;;;4.45;;
76208;SDS011;64990;51.698;-0.292;2023-02-28T00:04:38;25.27;;;6.00;;
76208;SDS011;64990;51.698;-0.292;2023-02-28T00:07:04;9.85;;;4.20;;
76208;SDS011;64990;51.698;-0.292;2023-02-28T00:09:30;15.55;;;5.78;;
76208;SDS011;64990;51.698;-0.292;2023-02-28T00:11:56;13.43;;;5.00;;
76208;SDS011;64990;51.698;-0.292;2023-02-28T00:14:23;22.65;;;4.18;;
76208;SDS011;64990;51.698;-0.292;2023-02-28T00:16:49;11.65;;;4.68;;
76208;SDS011;64990;51.698;-0.292;2023-02-28T00:19:15;20.27;;;4.72;;
76208;SDS011;64990;51.698;-0.292;2023-02-28T00:21:41;9.15;;;3.83;;
76208;SDS011;64990;51.698;-0.292;2023-02-28T00:24:07;11.25;;;4.28;;
76208;SDS011;64990;51.698;-0.292;2023-02-28T00:26:33;10.48;;;4.47;;
76208;SDS011;64990;51.698;-0.292;2023-02-28T00:28:59;18.73;;;4.80;;
76208;SDS011;64990;51.698;-0.292;2023-02-28T00:31:25;19.50;;;7.30;;
76208;SDS011;64990;51.698;-0.292;2023-02-28T00:33:51;11.38;;;4.28;;
76208;SDS011;64990;51.698;-0.292;2023-02-28T00:36:17;11.15;;;5.95;;
76208;SDS011;64990;51.698;-0.292;2023-02-28T00:38:43;9.25;;;5.80;;
76208;SDS011;64990;51.698;-0.292;2023-02-28T00:41:10;20.13;;;5.97;;
76208;SDS011;64990;51.698;-0.292;2023-02-28T00:43:36;11.32;;;4.32;;
76208;SDS011;64990;51.698;-0.292;2023-02-28T00:46:03;13.85;;;5.97;;
76208;SDS011;64990;51.698;-0.292;2023-02-28T00:48:29;14.15;;;4.60;;
76208;SDS011;64990;51.698;-0.292;2023-02-28T00:50:56;31.63;;;6.13;;
76208;SDS011;64990;51.698;-0.292;2023-02-28T00:53:22;13.18;;;5.93;;
76208;SDS011;64990;51.698;-0.292;2023-02-28T00:55:48;23.98;;;5.35;;
76208;SDS011;64990;51.698;-0.292;2023-02-28T00:58:14;19.42;;;5.03;;
76208;SDS011;64990;51.698;-0.292;2023-02-28T01:00:40;20.23;;;4.85;;
76208;SDS011;64990;51.698;-0.292;2023-02-28T01:03:06;18.40;;;5.15;;
76208;SDS011;64990;51.698;-0.292;2023-02-28T01:05:32;18.17;;;5.55;;
76208;SDS011;64990;51.698;-0.292;2023-02-28T01:07:58;13.18;;;5.65;;
76208;SDS011;64990;51.698;-0.292;2023-02-28T01:10:25;14.50;;;4.72;;
76208;SDS011;64990;51.698;-0.292;2023-02-28T01:12:51;16.17;;;5.63;;
76208;SDS011;64990;51.698;-0.292;2023-02-28T01:15:17;17.75;;;5.35;;
76208;SDS011;64990;51.698;-0.292;2023-02-28T01:17:43;23.95;;;5.35;;
76208;SDS011;64990;51.698;-0.292;2023-02-28T01:20:09;41.47;;;6.82;;
76208;SDS011;64990;51.698;-0.292;2023-02-28T01:22:35;13.80;;;6.40;;
76208;SDS011;64990;51.698;-0.292;2023-02-28T01:25:01;32.53;;;7.03;;
76208;SDS011;64990;51.698;-0.292;2023-02-28T01:27:27;10.77;;;4.32;;
76208;SDS011;64990;51.698;-0.292;2023-02-28T01:29:53;15.85;;;5.38;;
76208;SDS011;64990;51.698;-0.292;2023-02-28T01:32:19;15.88;;;5.22;;
76208;SDS011;64990;51.698;-0.292;2023-02-28T01:34:46;13.35;;;4.22;;
76208;SDS011;64990;51.698;-0.292;2023-02-28T01:37:12;17.40;;;4.47;;
76208;SDS011;64990;51.698;-0.292;2023-02-28T01:39:38;18.23;;;5.28;;
76208;SDS011;64990;51.698;-0.292;2023-02-28T01:42:04;20.08;;;7.15;;
76208;SDS011;64990;51.698;-0.292;2023-02-28T01:47:15;20.38;;;7.53;;
76208;SDS011;64990;51.698;-0.292;2023-02-28T01:49:41;23.88;;;6.03;;
76208;SDS011;64990;51.698;-0.292;2023-02-28T01:52:07;27.92;;;6.22;;
76208;SDS011;64990;51.698;-0.292;2023-02-28T01:54:33;18.73;;;6.63;;
76208;SDS011;64990;51.698;-0.292;2023-02-28T01:59:30;16.38;;;6.25;;
76208;SDS011;64990;51.698;-0.292;2023-02-28T02:01:57;20.73;;;6.20;;
76208;SDS011;64990;51.698;-0.292;2023-02-28T02:04:25;19.73;;;5.95;;
76208;SDS011;64990;51.698;-0.292;2023-02-28T02:06:52;19.77;;;8.55;;
76208;SDS011;64990;51.698;-0.292;2023-02-28T02:09:18;17.45;;;8.15;;
76208;SDS011;64990;51.698;-0.292;2023-02-28T02:11:44;16.10;;;6.32;;
76208;SDS011;64990;51.698;-0.292;2023-02-28T02:16:57;24.17;;;8.45;;
76208;SDS011;64990;51.698;-0.292;2023-02-28T02:22:19;18.00;;;6.78;;
76208;SDS011;64990;51.698;-0.292;2023-02-28T02:24:58;21.90;;;8.10;;
76208;SDS011;64990;51.698;-0.292;2023-02-28T02:32:44;31.80;;;8.35;;
76208;SDS011;64990;51.698;-0.292;2023-02-28T02:37:55;34.97;;;10.05;;
76208;SDS011;64990;51.698;-0.292;2023-02-28T02:43:19;23.70;;;10.52;;
76208;SDS011;64990;51.698;-0.292;2023-02-28T02:45:53;25.13;;;10.43;;
76208;SDS011;64990;51.698;-0.292;2023-02-28T02:48:19;29.98;;;8.30;;
76208;SDS011;64990;51.698;-0.292;2023-02-28T02:50:51;22.08;;;10.68;;
76208;SDS011;64990;51.698;-0.292;2023-02-28T02:53:19;35.70;;;10.23;;
76208;SDS011;64990;51.698;-0.292;2023-02-28T02:55:47;42.13;;;10.05;;
76208;SDS011;64990;51.698;-0.292;2023-02-28T02:58:18;28.85;;;8.38;;
76208;SDS011;64990;51.698;-0.292;2023-02-28T03:00:47;25.52;;;9.73;;
76208;SDS011;64990;51.698;-0.292;2023-02-28T03:03:14;28.90;;;10.50;;
76208;SDS011;64990;51.698;-0.292;2023-02-28T03:05:46;34.42;;;9.27;;
76208;SDS011;64990;51.698;-0.292;2023-02-28T03:08:12;27.50;;;8.10;;
76208;SDS011;64990;51.698;-0.292;2023-02-28T03:18:42;31.38;;;7.95;;
76208;SDS011;64990;51.698;-0.292;2023-02-28T03:23:42;33.45;;;9.27;;
76208;SDS011;64990;51.698;-0.292;2023-02-28T03:26:17;26.92;;;9.88;;
76208;SDS011;64990;51.698;-0.292;2023-02-28T03:28:56;29.42;;;9.35;;
76208;SDS011;64990;51.698;-0.292;2023-02-28T03:31:28;20.75;;;9.93;;
76208;SDS011;64990;51.698;-0.292;2023-02-28T03:36:26;24.13;;;8.90;;
76208;SDS011;64990;51.698;-0.292;2023-02-28T03:41:21;18.75;;;9.10;;
76208;SDS011;64990;51.698;-0.292;2023-02-28T03:43:49;14.75;;;7.72;;
76208;SDS011;64990;51.698;-0.292;2023-02-28T03:46:17;22.15;;;9.00;;
76208;SDS011;64990;51.698;-0.292;2023-02-28T03:48:51;16.63;;;8.75;;
76208;SDS011;64990;51.698;-0.292;2023-02-28T03:51:18;27.23;;;10.43;;
76208;SDS011;64990;51.698;-0.292;2023-02-28T03:53:56;29.00;;;11.05;;
76208;SDS011;64990;51.698;-0.292;2023-02-28T03:56:33;22.95;;;10.05;;
76208;SDS011;64990;51.698;-0.292;2023-02-28T03:59:07;26.23;;;10.60;;
76208;SDS011;64990;51.698;-0.292;2023-02-28T04:01:39;32.40;;;9.82;;
76208;SDS011;64990;51.698;-0.292;2023-02-28T04:04:06;22.23;;;8.13;;
76208;SDS011;64990;51.698;-0.292;2023-02-28T04:06:33;20.58;;;7.85;;
76208;SDS011;64990;51.698;-0.292;2023-02-28T04:08:59;19.30;;;8.13;;
76208;SDS011;64990;51.698;-0.292;2023-02-28T04:13:58;18.27;;;8.30;;
76208;SDS011;64990;51.698;-0.292;2023-02-28T04:16:24;34.17;;;10.60;;
76208;SDS011;64990;51.698;-0.292;2023-02-28T04:18:50;20.80;;;7.82;;
76208;SDS011;64990;51.698;-0.292;2023-02-28T04:21:16;23.45;;;10.05;;
76208;SDS011;64990;51.698;-0.292;2023-02-28T04:23:45;14.38;;;7.97;;
76208;SDS011;64990;51.698;-0.292;2023-02-28T04:26:11;28.85;;;9.05;;
76208;SDS011;64990;51.698;-0.292;2023-02-28T04:28:38;20.73;;;8.93;;
76208;SDS011;64990;51.698;-0.292;2023-02-28T04:31:04;20.27;;;8.30;;
76208;SDS011;64990;51.698;-0.292;2023-02-28T04:33:31;15.77;;;7.50;;
76208;SDS011;64990;51.698;-0.292;2023-02-28T04:36:01;19.60;;;9.18;;
76208;SDS011;64990;51.698;-0.292;2023-02-28T04:38:38;12.82;;;6.70;;
76208;SDS011;64990;51.698;-0.292;2023-02-28T04:41:04;25.42;;;9.10;;
76208;SDS011;64990;51.698;-0.292;2023-02-28T04:43:30;28.63;;;9.00;;
76208;SDS011;64990;51.698;-0.292;2023-02-28T04:45:57;14.88;;;6.90;;
76208;SDS011;64990;51.698;-0.292;2023-02-28T04:48:24;18.88;;;7.10;;
76208;SDS011;64990;51.698;-0.292;2023-02-28T04:50:50;22.45;;;8.00;;
76208;SDS011;64990;51.698;-0.292;2023-02-28T04:53:17;19.30;;;7.32;;
76208;SDS011;64990;51.698;-0.292;2023-02-28T04:55:43;15.50;;;7.10;;
76208;SDS011;64990;51.698;-0.292;2023-02-28T04:58:09;23.33;;;7.15;;
76208;SDS011;64990;51.698;-0.292;2023-02-28T05:00:35;20.85;;;8.40;;
76208;SDS011;64990;51.698;-0.292;2023-02-28T05:03:01;20.08;;;8.05;;
76208;SDS011;64990;51.698;-0.292;2023-02-28T05:05:27;18.98;;;7.57;;
76208;SDS011;64990;51.698;-0.292;2023-02-28T05:07:53;23.10;;;10.20;;
76208;SDS011;64990;51.698;-0.292;2023-02-28T05:10:20;40.55;;;10.70;;
76208;SDS011;64990;51.698;-0.292;2023-02-28T05:12:46;26.83;;;8.38;;
76208;SDS011;64990;51.698;-0.292;2023-02-28T05:15:13;38.20;;;10.48;;
76208;SDS011;64990;51.698;-0.292;2023-02-28T05:17:39;35.08;;;11.60;;
76208;SDS011;64990;51.698;-0.292;2023-02-28T05:20:06;33.47;;;12.00;;
76208;SDS011;64990;51.698;-0.292;2023-02-28T05:22:34;62.25;;;13.10;;
76208;SDS011;64990;51.698;-0.292;2023-02-28T05:25:00;81.20;;;10.07;;
76208;SDS011;64990;51.698;-0.292;2023-02-28T05:27:26;44.00;;;11.18;;
76208;SDS011;64990;51.698;-0.292;2023-02-28T05:29:53;145.63;;;14.57;;
76208;SDS011;64990;51.698;-0.292;2023-02-28T05:32:19;38.75;;;11.30;;
76208;SDS011;64990;51.698;-0.292;2023-02-28T05:34:45;176.68;;;14.38;;
76208;SDS011;64990;51.698;-0.292;2023-02-28T05:37:12;146.75;;;13.13;;
76208;SDS011;64990;51.698;-0.292;2023-02-28T05:39:38;164.18;;;14.50;;
76208;SDS011;64990;51.698;-0.292;2023-02-28T05:42:04;161.35;;;15.05;;
76208;SDS011;64990;51.698;-0.292;2023-02-28T05:44:31;354.67;;;28.02;;
76208;SDS011;64990;51.698;-0.292;2023-02-28T05:46:57;188.77;;;16.90;;
76208;SDS011;64990;51.698;-0.292;2023-02-28T05:49:23;260.50;;;21.55;;
76208;SDS011;64990;51.698;-0.292;2023-02-28T05:51:49;247.38;;;17.00;;
76208;SDS011;64990;51.698;-0.292;2023-02-28T05:54:15;212.00;;;16.70;;
76208;SDS011;64990;51.698;-0.292;2023-02-28T05:56:41;230.93;;;19.33;;
76208;SDS011;64990;51.698;-0.292;2023-02-28T05:59:10;783.25;;;43.30;;
76208;SDS011;64990;51.698;-0.292;2023-02-28T06:01:38;154.55;;;17.63;;
76208;SDS011;64990;51.698;-0.292;2023-02-28T06:04:05;509.20;;;35.22;;
76208;SDS011;64990;51.698;-0.292;2023-02-28T06:06:31;709.55;;;44.92;;
76208;SDS011;64990;51.698;-0.292;2023-02-28T06:08:59;352.33;;;26.83;;
76208;SDS011;64990;51.698;-0.292;2023-02-28T06:11:26;246.15;;;18.23;;
76208;SDS011;64990;51.698;-0.292;2023-02-28T06:13:56;95.65;;;13.05;;
76208;SDS011;64990;51.698;-0.292;2023-02-28T06:16:22;41.22;;;10.57;;
76208;SDS011;64990;51.698;-0.292;2023-02-28T06:18:49;27.40;;;9.95;;
76208;SDS011;64990;51.698;-0.292;2023-02-28T06:21:15;35.88;;;10.20;;
76208;SDS011;64990;51.698;-0.292;2023-02-28T06:23:41;31.73;;;11.85;;
76208;SDS011;64990;51.698;-0.292;2023-02-28T06:26:07;30.60;;;9.77;;
76208;SDS011;64990;51.698;-0.292;2023-02-28T06:28:33;22.00;;;9.07;;
76208;SDS011;64990;51.698;-0.292;2023-02-28T06:30:59;17.73;;;7.75;;
76208;SDS011;64990;51.698;-0.292;2023-02-28T06:33:30;26.77;;;9.20;;
76208;SDS011;64990;51.698;-0.292;2023-02-28T06:35:56;21.77;;;9.13;;
76208;SDS011;64990;51.698;-0.292;2023-02-28T06:38:22;31.60;;;9.00;;
76208;SDS011;64990;51.698;-0.292;2023-02-28T06:40:55;21.63;;;10.38;;
76208;SDS011;64990;51.698;-0.292;2023-02-28T06:43:22;22.58;;;10.02;;
76208;SDS011;64990;51.698;-0.292;2023-02-28T06:45:48;21.70;;;8.52;;
76208;SDS011;64990;51.698;-0.292;2023-02-28T06:48:14;21.50;;;9.13;;
76208;SDS011;64990;51.698;-0.292;2023-02-28T06:50:40;23.38;;;9.68;;
76208;SDS011;64990;51.698;-0.292;2023-02-28T06:53:06;20.45;;;9.38;;
76208;SDS011;64990;51.698;-0.292;2023-02-28T06:55:32;24.98;;;9.88;;
76208;SDS011;64990;51.698;-0.292;2023-02-28T06:57:58;22.15;;;8.95;;
76208;SDS011;64990;51.698;-0.292;2023-02-28T07:00:24;20.25;;;9.18;;
76208;SDS011;64990;51.698;-0.292;2023-02-28T07:02:50;26.15;;;9.48;;
76208;SDS011;64990;51.698;-0.292;2023-02-28T07:05:16;24.13;;;9.43;;
76208;SDS011;64990;51.698;-0.292;2023-02-28T07:07:42;20.15;;;8.05;;
76208;SDS011;64990;51.698;-0.292;2023-02-28T07:10:11;18.50;;;8.88;;
76208;SDS011;64990;51.698;-0.292;2023-02-28T07:12:38;20.00;;;8.30;;
76208;SDS011;64990;51.698;-0.292;2023-02-28T07:15:04;28.58;;;7.95;;
76208;SDS011;64990;51.698;-0.292;2023-02-28T07:17:31;16.55;;;8.07;;
76208;SDS011;64990;51.698;-0.292;2023-02-28T07:19:57;20.90;;;8.07;;
76208;SDS011;64990;51.698;-0.292;2023-02-28T07:22:23;18.60;;;8.10;;
76208;SDS011;64990;51.698;-0.292;2023-02-28T07:24:49;20.10;;;8.18;;
76208;SDS011;64990;51.698;-0.292;2023-02-28T07:27:16;18.15;;;7.57;;
76208;SDS011;64990;51.698;-0.292;2023-02-28T07:29:51;16.00;;;7.95;;
76208;SDS011;64990;51.698;-0.292;2023-02-28T07:32:17;13.38;;;7.15;;
76208;SDS011;64990;51.698;-0.292;2023-02-28T07:34:43;12.55;;;5.68;;
76208;SDS011;64990;51.698;-0.292;2023-02-28T07:37:09;14.10;;;6.90;;
76208;SDS011;64990;51.698;-0.292;2023-02-28T07:39:35;14.23;;;7.22;;
76208;SDS011;64990;51.698;-0.292;2023-02-28T07:42:04;19.95;;;6.60;;
76208;SDS011;64990;51.698;-0.292;2023-02-28T07:44:31;15.88;;;8.23;;
76208;SDS011;64990;51.698;-0.292;2023-02-28T07:46:57;17.13;;;6.90;;
76208;SDS011;64990;51.698;-0.292;2023-02-28T07:49:23;13.82;;;6.40;;
76208;SDS011;64990;51.698;-0.292;2023-02-28T07:51:49;12.07;;;5.10;;
76208;SDS011;64990;51.698;-0.292;2023-02-28T07:54:15;22.80;;;7.80;;
76208;SDS011;64990;51.698;-0.292;2023-02-28T07:56:41;18.05;;;6.95;;
76208;SDS011;64990;51.698;-0.292;2023-02-28T07:59:07;14.50;;;6.43;;
76208;SDS011;64990;51.698;-0.292;2023-02-28T08:01:34;16.02;;;5.88;;
76208;SDS011;64990;51.698;-0.292;2023-02-28T08:04:00;15.15;;;5.88;;
76208;SDS011;64990;51.698;-0.292;2023-02-28T08:06:26;9.80;;;5.53;;
76208;SDS011;64990;51.698;-0.292;2023-02-28T08:08:52;13.18;;;5.45;;
76208;SDS011;64990;51.698;-0.292;2023-02-28T08:11:19;24.85;;;6.78;;
76208;SDS011;64990;51.698;-0.292;2023-02-28T08:13:45;11.68;;;5.22;;
76208;SDS011;64990;51.698;-0.292;2023-02-28T08:16:11;9.55;;;4.43;;
76208;SDS011;64990;51.698;-0.292;2023-02-28T08:18:42;9.73;;;4.03;;
76208;SDS011;64990;51.698;-0.292;2023-02-28T08:21:09;7.65;;;4.03;;
76208;SDS011;64990;51.698;-0.292;2023-02-28T08:23:35;7.82;;;5.20;;
76208;SDS011;64990;51.698;-0.292;2023-02-28T08:26:02;13.93;;;4.93;;
76208;SDS011;64990;51.698;-0.292;2023-02-28T08:28:28;9.27;;;4.68;;
76208;SDS011;64990;51.698;-0.292;2023-02-28T08:30:54;14.35;;;5.07;;
76208;SDS011;64990;51.698;-0.292;2023-02-28T08:33:21;8.90;;;4.22;;
76208;SDS011;64990;51.698;-0.292;2023-02-28T08:35:47;41.78;;;5.60;;
76208;SDS011;64990;51.698;-0.292;2023-02-28T08:38:13;19.60;;;6.35;;
76208;SDS011;64990;51.698;-0.292;2023-02-28T08:40:39;9.57;;;6.13;;
76208;SDS011;64990;51.698;-0.292;2023-02-28T08:43:05;9.20;;;4.78;;
76208;SDS011;64990;51.698;-0.292;2023-02-28T08:45:31;7.72;;;4.13;;
76208;SDS011;64990;51.698;-0.292;2023-02-28T08:47:57;4.07;;;3.22;;
76208;SDS011;64990;51.698;-0.292;2023-02-28T08:50:23;7.70;;;4.53;;
76208;SDS011;64990;51.698;-0.292;2023-02-28T08:52:49;7.03;;;3.30;;
76208;SDS011;64990;51.698;-0.292;2023-02-28T08:55:15;10.38;;;3.65;;
76208;SDS011;64990;51.698;-0.292;2023-02-28T08:57:41;7.03;;;3.45;;
76208;SDS011;64990;51.698;-0.292;2023-02-28T09:00:07;6.35;;;2.92;;
76208;SDS011;64990;51.698;-0.292;2023-02-28T09:02:35;4.53;;;2.75;;
76208;SDS011;64990;51.698;-0.292;2023-02-28T09:05:02;7.35;;;4.13;;
76208;SDS011;64990;51.698;-0.292;2023-02-28T09:07:28;4.47;;;3.25;;
76208;SDS011;64990;51.698;-0.292;2023-02-28T09:09:54;4.88;;;2.85;;
76208;SDS011;64990;51.698;-0.292;2023-02-28T09:12:23;5.85;;;3.20;;
76208;SDS011;64990;51.698;-0.292;2023-02-28T09:14:49;4.82;;;2.33;;
76208;SDS011;64990;51.698;-0.292;2023-02-28T09:17:15;6.28;;;3.20;;
76208;SDS011;64990;51.698;-0.292;2023-02-28T09:19:41;4.60;;;2.80;;
76208;SDS011;64990;51.698;-0.292;2023-02-28T09:22:07;6.50;;;4.50;;
76208;SDS011;64990;51.698;-0.292;2023-02-28T09:24:34;7.43;;;2.83;;
76208;SDS011;64990;51.698;-0.292;2023-02-28T09:27:01;5.43;;;2.65;;
76208;SDS011;64990;51.698;-0.292;2023-02-28T09:29:27;8.88;;;2.88;;
76208;SDS011;64990;51.698;-0.292;2023-02-28T09:31:53;10.20;;;3.60;;
76208;SDS011;64990;51.698;-0.292;2023-02-28T09:34:19;5.93;;;3.75;;
76208;SDS011;64990;51.698;-0.292;2023-02-28T09:36:45;3.35;;;2.42;;
76208;SDS011;64990;51.698;-0.292;2023-02-28T09:39:11;8.00;;;2.67;;
76208;SDS011;64990;51.698;-0.292;2023-02-28T09:41:38;8.15;;;2.45;;
76208;SDS011;64990;51.698;-0.292;2023-02-28T09:44:12;4.80;;;2.38;;
76208;SDS011;64990;51.698;-0.292;2023-02-28T09:46:48;3.35;;;2.40;;
76208;SDS011;64990;51.698;-0.292;2023-02-28T09:49:18;4.57;;;1.90;;
76208;SDS011;64990;51.698;-0.292;2023-02-28T09:51:58;2.55;;;1.65;;
76208;SDS011;64990;51.698;-0.292;2023-02-28T09:54:28;11.35;;;2.95;;
76208;SDS011;64990;51.698;-0.292;2023-02-28T09:57:04;2.17;;;1.65;;
76208;SDS011;64990;51.698;-0.292;2023-02-28T09:59:36;6.82;;;2.85;;
76208;SDS011;64990;51.698;-0.292;2023-02-28T10:02:15;11.35;;;2.33;;
76208;SDS011;64990;51.698;-0.292;2023-02-28T10:04:47;4.20;;;2.15;;
76208;SDS011;64990;51.698;-0.292;2023-02-28T10:09:45;4.40;;;2.00;;
76208;SDS011;64990;51.698;-0.292;2023-02-28T10:12:12;3.55;;;2.15;;
76208;SDS011;64990;51.698;-0.292;2023-02-28T10:14:39;3.83;;;2.50;;
76208;SDS011;64990;51.698;-0.292;2023-02-28T10:17:09;4.70;;;1.92;;
76208;SDS011;64990;51.698;-0.292;2023-02-28T10:24:43;6.93;;;2.08;;
76208;SDS011;64990;51.698;-0.292;2023-02-28T10:27:20;4.50;;;1.95;;
76208;SDS011;64990;51.698;-0.292;2023-02-28T10:29:48;3.80;;;1.80;;
76208;SDS011;64990;51.698;-0.292;2023-02-28T10:32:18;3.15;;;1.80;;
76208;SDS011;64990;51.698;-0.292;2023-02-28T10:34:44;3.17;;;2.10;;
76208;SDS011;64990;51.698;-0.292;2023-02-28T10:37:12;4.70;;;2.45;;
76208;SDS011;64990;51.698;-0.292;2023-02-28T10:39:45;3.40;;;1.73;;
76208;SDS011;64990;51.698;-0.292;2023-02-28T10:42:19;4.10;;;2.55;;
76208;SDS011;64990;51.698;-0.292;2023-02-28T10:44:45;5.07;;;1.83;;
76208;SDS011;64990;51.698;-0.292;2023-02-28T10:47:15;2.28;;;1.92;;
76208;SDS011;64990;51.698;-0.292;2023-02-28T10:49:48;3.80;;;2.67;;
76208;SDS011;64990;51.698;-0.292;2023-02-28T10:52:32;13.23;;;2.92;;
76208;SDS011;64990;51.698;-0.292;2023-02-28T10:55:15;5.88;;;3.25;;
76208;SDS011;64990;51.698;-0.292;2023-02-28T10:57:42;8.93;;;4.85;;
76208;SDS011;64990;51.698;-0.292;2023-02-28T11:00:23;9.20;;;5.40;;
76208;SDS011;64990;51.698;-0.292;2023-02-28T11:02:52;13.52;;;6.18;;
76208;SDS011;64990;51.698;-0.292;2023-02-28T11:05:28;10.75;;;5.57;;
76208;SDS011;64990;51.698;-0.292;2023-02-28T11:08:12;11.82;;;7.03;;
76208;SDS011;64990;51.698;-0.292;2023-02-28T11:10:39;14.13;;;6.55;;
76208;SDS011;64990;51.698;-0.292;2023-02-28T11:13:15;11.63;;;6.68;;
76208;SDS011;64990;51.698;-0.292;2023-02-28T11:15:43;14.32;;;7.22;;
76208;SDS011;64990;51.698;-0.292;2023-02-28T11:18:21;16.73;;;6.70;;
76208;SDS011;64990;51.698;-0.292;2023-02-28T11:20:49;18.70;;;6.82;;
76208;SDS011;64990;51.698;-0.292;2023-02-28T11:23:15;14.30;;;6.53;;
76208;SDS011;64990;51.698;-0.292;2023-02-28T11:25:47;10.07;;;5.60;;
76208;SDS011;64990;51.698;-0.292;2023-02-28T11:31:04;10.88;;;5.30;;
76208;SDS011;64990;51.698;-0.292;2023-02-28T11:33:32;10.75;;;4.88;;
76208;SDS011;64990;51.698;-0.292;2023-02-28T11:36:10;9.13;;;4.88;;
76208;SDS011;64990;51.698;-0.292;2023-02-28T11:38:36;10.02;;;4.60;;
76208;SDS011;64990;51.698;-0.292;2023-02-28T11:43:40;9.32;;;5.65;;
76208;SDS011;64990;51.698;-0.292;2023-02-28T11:51:30;9.07;;;4.82;;
76208;SDS011;64990;51.698;-0.292;2023-02-28T11:56:39;12.82;;;5.38;;
76208;SDS011;64990;51.698;-0.292;2023-02-28T12:06:57;11.55;;;5.13;;
76208;SDS011;64990;51.698;-0.292;2023-02-28T12:12:20;5.05;;;2.22;;
76208;SDS011;64990;51.698;-0.292;2023-02-28T12:25:02;2.72;;;1.70;;
76208;SDS011;64990;51.698;-0.292;2023-02-28T12:27:40;4.60;;;2.30;;
76208;SDS011;64990;51.698;-0.292;2023-02-28T12:32:37;3.40;;;1.40;;
76208;SDS011;64990;51.698;-0.292;2023-02-28T12:35:10;2.42;;;1.42;;
76208;SDS011;64990;51.698;-0.292;2023-02-28T12:37:39;2.45;;;1.40;;
76208;SDS011;64990;51.698;-0.292;2023-02-28T12:40:12;3.67;;;2.42;;
76208;SDS011;64990;51.698;-0.292;2023-02-28T12:42:39;2.60;;;1.85;;
76208;SDS011;64990;51.698;-0.292;2023-02-28T12:45:09;4.22;;;2.60;;
76208;SDS011;64990;51.698;-0.292;2023-02-28T12:47:36;7.95;;;2.40;;
76208;SDS011;64990;51.698;-0.292;2023-02-28T12:55:15;5.07;;;2.95;;
76208;SDS011;64990;51.698;-0.292;2023-02-28T12:57:48;4.07;;;1.92;;
76208;SDS011;64990;51.698;-0.292;2023-02-28T13:00:19;14.20;;;3.30;;
76208;SDS011;64990;51.698;-0.292;2023-02-28T13:08:07;3.97;;;2.65;;
76208;SDS011;64990;51.698;-0.292;2023-02-28T13:10:43;3.25;;;2.08;;
76208;SDS011;64990;51.698;-0.292;2023-02-28T13:13:19;2.17;;;1.70;;
76208;SDS011;64990;51.698;-0.292;2023-02-28T13:18:38;1.73;;;1.17;;
76208;SDS011;64990;51.698;-0.292;2023-02-28T13:21:06;5.10;;;2.92;;
76208;SDS011;64990;51.698;-0.292;2023-02-28T13:23:40;2.25;;;1.48;;
76208;SDS011;64990;51.698;-0.292;2023-02-28T13:26:06;1.70;;;1.10;;
76208;SDS011;64990;51.698;-0.292;2023-02-28T13:31:14;0.95;;;0.88;;
76208;SDS011;64990;51.698;-0.292;2023-02-28T13:38:42;2.42;;;1.00;;
76208;SDS011;64990;51.698;-0.292;2023-02-28T13:46:36;4.03;;;0.80;;
76208;SDS011;64990;51.698;-0.292;2023-02-28T13:52:13;4.30;;;0.80;;
76208;SDS011;64990;51.698;-0.292;2023-02-28T13:59:47;1.85;;;0.73;;
76208;SDS011;64990;51.698;-0.292;2023-02-28T14:05:00;1.42;;;1.30;;
76208;SDS011;64990;51.698;-0.292;2023-02-28T14:07:28;2.25;;;1.27;;
76208;SDS011;64990;51.698;-0.292;2023-02-28T14:09:57;1.27;;;0.68;;
76208;SDS011;64990;51.698;-0.292;2023-02-28T14:17:54;2.03;;;1.07;;
76208;SDS011;64990;51.698;-0.292;2023-02-28T14:20:21;3.58;;;0.93;;
76208;SDS011;64990;51.698;-0.292;2023-02-28T14:25:20;2.40;;;0.90;;
76208;SDS011;64990;51.698;-0.292;2023-02-28T14:33:20;9.70;;;2.15;;
76208;SDS011;64990;51.698;-0.292;2023-02-28T14:38:35;2.38;;;1.30;;
76208;SDS011;64990;51.698;-0.292;2023-02-28T14:41:03;9.05;;;2.15;;
76208;SDS011;64990;51.698;-0.292;2023-02-28T14:43:31;4.18;;;2.33;;
76208;SDS011;64990;51.698;-0.292;2023-02-28T14:46:01;0.75;;;0.75;;
76208;SDS011;64990;51.698;-0.292;2023-02-28T14:48:28;2.42;;;0.82;;
76208;SDS011;64990;51.698;-0.292;2023-02-28T14:50:55;2.35;;;1.20;;
76208;SDS011;64990;51.698;-0.292;2023-02-28T14:53:22;2.40;;;1.17;;
76208;SDS011;64990;51.698;-0.292;2023-02-28T14:55:49;2.88;;;1.90;;
76208;SDS011;64990;51.698;-0.292;2023-02-28T15:00:53;2.38;;;1.58;;
76208;SDS011;64990;51.698;-0.292;2023-02-28T15:03:21;1.83;;;1.40;;
76208;SDS011;64990;51.698;-0.292;2023-02-28T15:05:55;7.30;;;3.03;;
76208;SDS011;64990;51.698;-0.292;2023-02-28T15:08:22;11.27;;;1.98;;
76208;SDS011;64990;51.698;-0.292;2023-02-28T15:13:20;3.58;;;1.63;;
76208;SDS011;64990;51.698;-0.292;2023-02-28T15:20:45;9.35;;;1.92;;
76208;SDS011;64990;51.698;-0.292;2023-02-28T15:23:11;1.15;;;0.75;;
76208;SDS011;64990;51.698;-0.292;2023-02-28T15:25:37;4.57;;;2.45;;
76208;SDS011;64990;51.698;-0.292;2023-02-28T15:28:03;1.50;;;1.10;;
76208;SDS011;64990;51.698;-0.292;2023-02-28T15:30:30;5.28;;;1.67;;
76208;SDS011;64990;51.698;-0.292;2023-02-28T15:35:30;7.72;;;2.53;;
76208;SDS011;64990;51.698;-0.292;2023-02-28T15:38:04;5.70;;;1.08;;
76208;SDS011;64990;51.698;-0.292;2023-02-28T15:40:49;1.75;;;1.20;;
76208;SDS011;64990;51.698;-0.292;2023-02-28T15:43:23;2.22;;;1.17;;
76208;SDS011;64990;51.698;-0.292;2023-02-28T15:45:50;5.72;;;1.15;;
76208;SDS011;64990;51.698;-0.292;2023-02-28T15:48:22;2.10;;;1.08;;
76208;SDS011;64990;51.698;-0.292;2023-02-28T15:50:50;0.73;;;0.70;;
76208;SDS011;64990;51.698;-0.292;2023-02-28T15:53:17;0.75;;;0.75;;
76208;SDS011;64990;51.698;-0.292;2023-02-28T15:55:47;0.57;;;0.57;;
76208;SDS011;64990;51.698;-0.292;2023-02-28T15:58:17;1.00;;;0.88;;
76208;SDS011;64990;51.698;-0.292;2023-02-28T16:00:44;4.15;;;1.02;;
76208;SDS011;64990;51.698;-0.292;2023-02-28T16:03:24;0.90;;;0.90;;
76208;SDS011;64990;51.698;-0.292;2023-02-28T16:08:54;1.05;;;0.70;;
76208;SDS011;64990;51.698;-0.292;2023-02-28T16:11:20;0.50;;;0.50;;
76208;SDS011;64990;51.698;-0.292;2023-02-28T16:13:47;2.15;;;1.38;;
76208;SDS011;64990;51.698;-0.292;2023-02-28T16:16:20;0.80;;;0.70;;
76208;SDS011;64990;51.698;-0.292;2023-02-28T16:18:46;4.22;;;0.88;;
76208;SDS011;64990;51.698;-0.292;2023-02-28T16:21:13;1.40;;;0.77;;
76208;SDS011;64990;51.698;-0.292;2023-02-28T16:23:39;3.95;;;0.90;;
76208;SDS011;64990;51.698;-0.292;2023-02-28T16:26:05;0.80;;;0.45;;
76208;SDS011;64990;51.698;-0.292;2023-02-28T16:28:35;0.50;;;0.50;;
76208;SDS011;64990;51.698;-0.292;2023-02-28T16:31:02;0.40;;;0.40;;
76208;SDS011;64990;51.698;-0.292;2023-02-28T16:33:29;0.88;;;0.52;;
76208;SDS011;64990;51.698;-0.292;2023-02-28T16:35:55;1.60;;;0.80;;
76208;SDS011;64990;51.698;-0.292;2023-02-28T16:38:21;1.23;;;0.80;;
76208;SDS011;64990;51.698;-0.292;2023-02-28T16:40:50;2.20;;;1.02;;
76208;SDS011;64990;51.698;-0.292;2023-02-28T16:43:17;11.98;;;0.93;;
76208;SDS011;64990;51.698;-0.292;2023-02-28T16:45:44;0.90;;;0.90;;
76208;SDS011;64990;51.698;-0.292;2023-02-28T16:48:14;6.07;;;0.60;;
76208;SDS011;64990;51.698;-0.292;2023-02-28T16:50:40;1.08;;;0.60;;
76208;SDS011;64990;51.698;-0.292;2023-02-28T16:53:06;2.08;;;1.02;;
76208;SDS011;64990;51.698;-0.292;2023-02-28T16:55:32;0.90;;;0.70;;
76208;SDS011;64990;51.698;-0.292;2023-02-28T16:58:00;2.03;;;0.60;;
76208;SDS011;64990;51.698;-0.292;2023-02-28T17:00:27;4.43;;;2.15;;
76208;SDS011;64990;51.698;-0.292;2023-02-28T17:02:53;0.50;;;0.50;;